TAF Text Data
IDs:
Format:
Raw Decoded Include METAR

Data at: 1117 UTC 07 Dec 2022

KTLH 071055Z 0711/0806 00000KT 2SM BR OVC001
  TEMPO 0711/0713 1/4SM FG
  FM071400 VRB03KT 3SM BR OVC004
  FM071700 VRB03KT P6SM OVC020
  FM072000 VRB03KT P6SM SCT045